Time;durP1;ratioP1;P1;durP2;ratioP2;P2;SDS_P1;SDS_P2;PMS_P1;PMS_P2;Temp;Humidity;BMP_temperature;BMP_pressure;BME280_temperature;BME280_humidity;BME280_pressure;Samples;Min_cycle;Max_cycle;Signal;HPM_P1;HPM_P2
2022/06/11 00:01:20;;;;;;;5.25;1.95;;;;;;;19.57;61.35;102052.91;5100971;28;20079;-66
2022/06/11 00:03:51;;;;;;;3.70;1.95;;;;;;;19.53;61.60;102049.03;5101924;28;20412;-67
2022/06/11 00:06:20;;;;;;;4.72;1.92;;;;;;;19.54;61.42;102058.84;5099626;28;20044;-67
2022/06/11 00:08:49;;;;;;;4.22;1.85;;;;;;;19.53;61.61;102057.22;5100997;28;20048;-66
2022/06/11 00:11:17;;;;;;;7.80;2.17;;;;;;;19.50;61.63;102040.25;5101858;28;20062;-67
2022/06/11 00:13:46;;;;;;;3.13;1.85;;;;;;;19.48;61.42;102045.13;5105952;28;20048;-67
2022/06/11 00:16:15;;;;;;;6.90;2.55;;;;;;;19.45;61.58;102042.91;5103196;28;20177;-65
2022/06/11 00:18:44;;;;;;;5.65;1.95;;;;;;;19.48;61.29;102050.56;5092756;28;20040;-66
2022/06/11 00:21:14;;;;;;;8.70;2.22;;;;;;;19.47;61.38;102050.81;5098343;28;20040;-66
2022/06/11 00:23:43;;;;;;;4.30;2.20;;;;;;;19.46;61.37;102051.91;5099032;28;20047;-66
2022/06/11 00:26:12;;;;;;;4.25;2.40;;;;;;;19.44;61.38;102043.16;5106993;28;20044;-66
2022/06/11 00:28:40;;;;;;;2.83;1.60;;;;;;;19.44;61.37;102054.06;5104310;28;20046;-67
2022/06/11 00:31:10;;;;;;;4.40;2.10;;;;;;;19.42;61.39;102051.59;5101283;28;20055;-67
2022/06/11 00:33:38;;;;;;;5.60;2.22;;;;;;;19.36;61.40;102043.59;5103569;28;20111;-67
2022/06/11 00:36:08;;;;;;;4.65;2.47;;;;;;;19.41;61.28;102054.56;5089458;28;20381;-66
2022/06/11 00:38:38;;;;;;;4.70;2.08;;;;;;;19.37;61.31;102047.97;5100808;28;20073;-66
2022/06/11 00:41:07;;;;;;;6.07;2.50;;;;;;;19.39;61.41;102051.25;5099890;28;20071;-67
2022/06/11 00:43:37;;;;;;;5.22;2.13;;;;;;;19.36;61.47;102047.13;5098550;28;20063;-67
2022/06/11 00:46:40;;;;;;;3.17;1.80;;;;;;;19.34;61.49;102053.91;5103748;28;20123;-66
2022/06/11 00:49:17;;;;;;;4.15;2.00;;;;;;;19.33;61.58;102042.19;5097069;28;20040;-66
2022/06/11 00:51:47;;;;;;;5.75;2.20;;;;;;;19.30;61.63;102041.88;5091582;28;20059;-67
2022/06/11 00:54:21;;;;;;;5.03;1.95;;;;;;;19.31;61.39;102047.06;5104712;28;20048;-66
2022/06/11 00:56:54;;;;;;;5.97;2.10;;;;;;;19.30;61.34;102039.13;5103978;28;20078;-67
2022/06/11 00:59:28;;;;;;;3.45;1.90;;;;;;;19.28;61.64;102044.84;5099198;28;20116;-66
2022/06/11 01:01:56;;;;;;;4.00;1.77;;;;;;;19.26;61.79;102044.25;5098909;28;20880;-67
2022/06/11 01:04:40;;;;;;;6.60;2.10;;;;;;;19.25;61.70;102042.63;5108312;28;20061;-66
2022/06/11 01:07:21;;;;;;;3.15;1.98;;;;;;;19.23;61.82;102046.66;5098510;28;20048;-66
2022/06/11 01:10:05;;;;;;;6.40;1.85;;;;;;;19.21;61.73;102049.63;5091859;28;20053;-67
2022/06/11 01:12:37;;;;;;;3.65;1.90;;;;;;;19.14;61.74;102038.91;5098005;28;20067;-67
2022/06/11 01:15:12;;;;;;;4.88;2.22;;;;;;;19.17;61.55;102048.50;5103109;28;20071;-67
2022/06/11 01:17:50;;;;;;;3.83;1.77;;;;;;;19.15;62.04;102045.19;5099337;28;20054;-67
2022/06/11 01:20:33;;;;;;;4.85;2.03;;;;;;;19.14;61.94;102040.81;5091550;28;20122;-67
2022/06/11 01:23:21;;;;;;;4.18;1.95;;;;;;;19.11;61.68;102033.13;5100510;28;20044;-67
2022/06/11 01:25:59;;;;;;;4.53;2.20;;;;;;;19.03;61.88;102028.97;5105574;28;20055;-66
2022/06/11 01:28:43;;;;;;;5.40;2.22;;;;;;;19.09;61.79;102038.84;5100082;28;20072;-66
2022/06/11 01:31:20;;;;;;;3.58;1.95;;;;;;;19.08;61.88;102039.91;5095949;28;20044;-67
2022/06/11 01:33:58;;;;;;;7.45;2.30;;;;;;;19.02;61.97;102032.75;5100164;28;20056;-66
2022/06/11 01:36:29;;;;;;;8.25;2.83;;;;;;;19.03;61.83;102034.41;5098960;28;20060;-67
2022/06/11 01:39:00;;;;;;;5.60;1.60;;;;;;;19.03;61.97;102033.59;5096519;28;20517;-67
2022/06/11 01:41:34;;;;;;;3.80;1.92;;;;;;;19.01;61.91;102030.28;5101779;28;20051;-67
2022/06/11 01:44:05;;;;;;;8.13;2.08;;;;;;;19.00;61.86;102023.19;5106239;28;20075;-67
2022/06/11 01:46:38;;;;;;;3.30;1.83;;;;;;;18.98;61.86;102028.88;5105784;28;20079;-67
2022/06/11 01:49:27;;;;;;;3.05;1.60;;;;;;;18.97;61.81;102020.97;5098643;28;20056;-67
2022/06/11 01:52:06;;;;;;;3.10;1.48;;;;;;;18.97;62.04;102023.69;5101790;28;20075;-67
2022/06/11 01:54:37;;;;;;;4.03;1.65;;;;;;;18.95;61.76;102021.22;5101396;28;20408;-67
2022/06/11 01:57:28;;;;;;;3.50;1.58;;;;;;;18.91;61.86;102011.88;5099468;28;20055;-66
2022/06/11 02:00:13;;;;;;;3.30;1.50;;;;;;;18.94;61.81;102016.00;5097783;28;20072;-66
2022/06/11 02:02:55;;;;;;;5.13;1.83;;;;;;;18.93;61.86;102031.53;5096498;28;20040;-67
2022/06/11 02:05:33;;;;;;;2.80;1.60;;;;;;;18.92;61.92;102034.50;5106711;28;20043;-67
2022/06/11 02:08:07;;;;;;;5.28;2.03;;;;;;;18.90;61.96;102025.75;5105151;28;20066;-67
2022/06/11 02:10:41;;;;;;;4.72;2.28;;;;;;;18.88;61.97;102028.72;5100574;28;20078;-67
2022/06/11 02:13:15;;;;;;;4.28;1.75;;;;;;;18.88;61.84;102030.63;5100568;28;20044;-67
2022/06/11 02:15:48;;;;;;;3.65;1.73;;;;;;;18.88;61.75;102026.00;5101740;28;20139;-66
2022/06/11 02:18:20;;;;;;;4.88;2.00;;;;;;;18.87;61.95;102026.25;5102837;28;20063;-66
2022/06/11 02:20:54;;;;;;;3.70;1.60;;;;;;;18.81;61.95;102028.91;5099136;28;20066;-67
2022/06/11 02:23:27;;;;;;;3.55;1.90;;;;;;;18.80;62.11;102029.16;5102202;28;20092;-67
2022/06/11 02:25:59;;;;;;;3.45;1.73;;;;;;;18.80;61.99;102032.69;5101075;28;20075;-67
2022/06/11 02:28:29;;;;;;;3.45;1.60;;;;;;;18.81;61.98;102037.06;5102369;28;20072;-67
2022/06/11 02:31:02;;;;;;;3.20;2.22;;;;;;;18.80;61.95;102029.97;5101042;28;20076;-67
2022/06/11 02:33:34;;;;;;;3.67;1.80;;;;;;;18.78;62.10;102029.41;5100723;28;20052;-67
2022/06/11 02:36:06;;;;;;;5.57;1.95;;;;;;;18.78;61.98;102034.00;5103120;28;20044;-67
2022/06/11 02:38:34;;;;;;;6.85;1.90;;;;;;;18.77;62.08;102029.63;5096711;28;20473;-67
2022/06/11 02:41:04;;;;;;;2.20;1.52;;;;;;;18.75;61.98;102032.63;5099673;28;20090;-67
2022/06/11 02:43:33;;;;;;;5.38;2.08;;;;;;;18.74;62.06;102041.84;5101254;28;20464;-67
2022/06/11 02:46:40;;;;;;;3.22;1.60;;;;;;;18.74;62.05;102041.03;5102859;28;20052;-67
2022/06/11 02:48:52;;;;;;;3.22;2.38;;;;;;;18.72;62.15;102051.34;5096237;28;20062;-68
2022/06/11 02:51:21;;;;;;;4.43;2.10;;;;;;;18.71;62.31;102050.53;5101586;28;20068;-67
2022/06/11 02:53:49;;;;;;;6.95;1.70;;;;;;;18.68;62.17;102051.00;5101441;28;20086;-67
2022/06/11 02:56:17;;;;;;;5.07;1.98;;;;;;;18.68;62.11;102050.19;5096121;28;20048;-68
2022/06/11 02:58:45;;;;;;;7.72;2.05;;;;;;;18.61;62.26;102046.78;5100552;28;20048;-67
2022/06/11 03:01:18;;;;;;;3.67;1.85;;;;;;;18.65;62.08;102059.66;5098427;28;20052;-67
2022/06/11 03:03:49;;;;;;;4.60;2.17;;;;;;;18.61;62.37;102055.78;5096904;28;20129;-67
2022/06/11 03:06:19;;;;;;;4.72;2.20;;;;;;;18.62;62.37;102051.16;5093919;28;20280;-68
2022/06/11 03:08:47;;;;;;;3.15;1.77;;;;;;;18.61;62.34;102066.69;5101397;28;20051;-68
2022/06/11 03:11:15;;;;;;;3.78;2.20;;;;;;;18.60;62.26;102053.28;5094841;28;20073;-66
2022/06/11 03:13:43;;;;;;;4.47;1.80;;;;;;;18.59;62.24;102057.06;5099439;28;20392;-66
2022/06/11 03:16:12;;;;;;;2.70;1.50;;;;;;;18.57;62.66;102060.03;5096977;28;20048;-66
2022/06/11 03:18:40;;;;;;;3.05;1.63;;;;;;;18.56;62.67;102055.66;5099592;28;20059;-66
2022/06/11 03:21:08;;;;;;;3.95;1.60;;;;;;;18.50;62.49;102053.94;5094811;28;20060;-66
2022/06/11 03:23:38;;;;;;;5.03;1.92;;;;;;;18.54;62.67;102060.53;5100333;28;20341;-66
2022/06/11 03:26:07;;;;;;;5.25;1.83;;;;;;;18.53;62.56;102067.06;5090678;28;20113;-66
2022/06/11 03:28:35;;;;;;;4.50;1.67;;;;;;;18.53;62.51;102069.78;5097545;28;20076;-67
2022/06/11 03:31:06;;;;;;;5.15;2.10;;;;;;;18.51;62.71;102070.00;5099733;28;20052;-67
2022/06/11 03:33:35;;;;;;;5.45;1.88;;;;;;;18.52;62.58;102076.28;5101589;28;20056;-67
2022/06/11 03:36:06;;;;;;;2.67;1.40;;;;;;;18.50;62.61;102071.09;5098749;28;20048;-67
2022/06/11 03:38:34;;;;;;;2.33;1.42;;;;;;;18.50;62.55;102071.09;5095987;28;20040;-66
2022/06/11 03:41:04;;;;;;;4.85;1.75;;;;;;;18.49;62.67;102069.44;5091408;28;20052;-66
2022/06/11 03:43:32;;;;;;;4.72;1.80;;;;;;;18.50;62.84;102075.72;5101752;28;20051;-67
2022/06/11 03:46:00;;;;;;;4.60;1.52;;;;;;;18.49;62.46;102079.50;5098137;28;20112;-66
2022/06/11 03:48:29;;;;;;;4.05;1.90;;;;;;;18.49;62.87;102084.94;5091149;28;20072;-67
2022/06/11 03:50:59;;;;;;;3.45;1.60;;;;;;;18.48;62.62;102084.13;5100286;28;20059;-66
2022/06/11 03:53:28;;;;;;;2.63;1.73;;;;;;;18.48;62.74;102084.13;5102126;28;20063;-67
2022/06/11 03:55:57;;;;;;;6.95;2.10;;;;;;;18.47;62.48;102089.81;5098975;28;20066;-67
2022/06/11 03:58:26;;;;;;;2.97;1.83;;;;;;;18.46;62.77;102097.16;5100452;28;20055;-67
2022/06/11 04:03:40;;;;;;;4.30;2.00;;;;;;;18.45;62.70;102098.22;5101563;28;20380;-67
2022/06/11 04:06:09;;;;;;;3.85;1.33;;;;;;;18.44;62.77;102093.84;5101528;28;20044;-66
2022/06/11 04:08:37;;;;;;;3.72;2.00;;;;;;;18.39;62.47;102091.03;5102654;28;20044;-67
2022/06/11 04:11:05;;;;;;;7.72;1.85;;;;;;;18.43;62.88;102099.53;5086413;28;20095;-67
2022/06/11 04:13:37;;;;;;;2.95;1.50;;;;;;;18.43;62.83;102099.53;5100728;28;20441;-66
2022/06/11 04:16:06;;;;;;;3.80;2.15;;;;;;;18.42;62.76;102106.88;5100361;28;20047;-66
2022/06/11 04:18:38;;;;;;;3.67;1.70;;;;;;;18.42;62.47;102108.78;5100325;28;20052;-67
2022/06/11 04:21:08;;;;;;;3.42;1.95;;;;;;;18.41;62.89;102110.66;5098687;28;20081;-67
2022/06/11 04:23:37;;;;;;;3.53;2.17;;;;;;;18.41;62.73;102116.09;5088917;28;20041;-67
2022/06/11 04:26:09;;;;;;;5.32;1.88;;;;;;;18.39;62.65;102115.53;5104395;28;20048;-67
2022/06/11 04:28:38;;;;;;;5.22;1.67;;;;;;;18.38;62.89;102116.59;5099083;28;20070;-66
2022/06/11 04:31:08;;;;;;;3.17;1.85;;;;;;;18.38;62.75;102118.50;5101873;28;20063;-67
2022/06/11 04:33:36;;;;;;;7.30;2.28;;;;;;;18.35;63.14;102118.97;5104566;28;20059;-67
2022/06/11 04:36:06;;;;;;;2.40;1.60;;;;;;;18.37;62.87;102130.44;5095599;28;20047;-66
2022/06/11 04:38:34;;;;;;;3.20;1.60;;;;;;;18.35;63.06;102127.13;5102483;28;20116;-66
2022/06/11 04:41:02;;;;;;;3.72;1.60;;;;;;;18.35;63.10;102127.13;5099426;28;20059;-66
2022/06/11 04:43:30;;;;;;;5.95;2.00;;;;;;;18.30;63.13;102124.31;5103772;28;20048;-67
2022/06/11 04:45:59;;;;;;;3.25;2.10;;;;;;;18.32;63.05;102139.34;5102889;28;20481;-67
2022/06/11 04:48:27;;;;;;;3.38;1.88;;;;;;;18.30;62.90;102133.31;5102654;28;20054;-66
2022/06/11 04:50:55;;;;;;;3.47;1.65;;;;;;;18.27;63.12;102131.06;5102844;28;20048;-65
2022/06/11 04:53:23;;;;;;;5.95;2.08;;;;;;;18.32;63.28;102135.78;5101638;28;20044;-67
2022/06/11 04:55:51;;;;;;;4.00;1.33;;;;;;;18.31;63.35;102131.41;5103914;28;20107;-66
2022/06/11 04:58:19;;;;;;;3.80;1.50;;;;;;;18.30;63.30;102129.75;5101253;28;20089;-66
2022/06/11 05:00:47;;;;;;;4.03;1.70;;;;;;;18.24;62.95;102130.72;5090850;28;20055;-66
2022/06/11 05:03:16;;;;;;;5.88;1.90;;;;;;;18.29;63.30;102136.28;5101960;28;20047;-66
2022/06/11 05:05:45;;;;;;;5.00;1.83;;;;;;;18.28;63.12;102149.06;5102316;28;20044;-66
2022/06/11 05:08:15;;;;;;;3.75;1.65;;;;;;;18.28;63.33;102143.59;5092244;28;20059;-66
2022/06/11 05:10:44;;;;;;;2.83;1.55;;;;;;;18.25;63.46;102135.94;5104501;28;20112;-66
2022/06/11 05:13:13;;;;;;;4.15;1.58;;;;;;;18.28;63.46;102142.78;5103204;28;20087;-66
2022/06/11 05:15:44;;;;;;;4.10;1.70;;;;;;;18.27;63.30;102141.97;5101813;28;20068;-65
2022/06/11 05:18:14;;;;;;;3.58;1.60;;;;;;;18.27;63.29;102138.41;5095356;28;20144;-68
2022/06/11 05:20:44;;;;;;;3.85;1.90;;;;;;;18.25;63.50;102132.38;4741497;28;10000205;-66
2022/06/11 05:23:13;;;;;;;2.78;1.65;;;;;;;18.26;63.22;102143.03;5101996;28;20090;-67
2022/06/11 05:25:43;;;;;;;3.15;1.98;;;;;;;18.27;63.18;102141.97;5096855;28;20076;-67
2022/06/11 05:28:16;;;;;;;3.72;1.70;;;;;;;18.27;63.10;102149.28;5101835;28;20364;-67
2022/06/11 05:30:44;;;;;;;3.35;1.83;;;;;;;18.27;63.21;102146.56;5099042;28;20113;-66
2022/06/11 05:33:13;;;;;;;2.75;1.60;;;;;;;18.26;62.96;102145.75;5098800;28;20143;-66
2022/06/11 05:35:43;;;;;;;6.63;2.38;;;;;;;18.26;62.95;102145.75;5098774;28;20105;-67
2022/06/11 05:38:17;;;;;;;5.28;2.00;;;;;;;18.27;63.16;102146.56;5098072;28;20052;-66
2022/06/11 05:40:48;;;;;;;2.60;1.35;;;;;;;18.28;62.96;102153.66;5090233;28;20078;-66
2022/06/11 05:43:16;;;;;;;5.70;2.38;;;;;;;18.24;62.89;102153.31;5092262;28;20075;-66
2022/06/11 05:45:49;;;;;;;5.07;2.10;;;;;;;18.28;62.83;102154.50;5095354;28;20064;-65
2022/06/11 05:48:20;;;;;;;4.88;2.53;;;;;;;18.28;62.77;102159.94;5091169;28;20047;-66
2022/06/11 05:50:54;;;;;;;5.47;1.88;;;;;;;18.26;62.72;102151.19;5097220;28;20449;-66
2022/06/11 05:53:24;;;;;;;4.10;1.65;;;;;;;18.27;62.54;102152.84;5099869;28;20399;-67
2022/06/11 05:55:53;;;;;;;3.60;1.95;;;;;;;18.28;62.59;102159.13;5095072;28;20102;-65
2022/06/11 05:58:24;;;;;;;4.57;1.73;;;;;;;18.28;62.43;102159.13;5096281;28;20059;-65
2022/06/11 06:00:53;;;;;;;5.63;1.85;;;;;;;18.30;62.43;102156.97;5094038;28;20080;-65
2022/06/11 06:03:21;;;;;;;2.95;1.60;;;;;;;18.32;62.53;102152.13;5090891;28;20078;-66
2022/06/11 06:05:52;;;;;;;3.78;2.00;;;;;;;18.34;62.41;102150.81;5095141;28;20048;-65
2022/06/11 06:08:20;;;;;;;3.38;1.58;;;;;;;18.37;62.31;102150.31;5091679;28;20044;-65
2022/06/11 06:10:48;;;;;;;8.45;2.55;;;;;;;18.40;62.15;102149.00;5090915;28;20059;-66
2022/06/11 06:16:07;;;;;;;7.85;2.42;;;;;;;18.45;61.68;102163.56;5073554;28;20086;-67
2022/06/11 06:18:35;;;;;;;11.77;2.40;;;;;;;18.48;59.32;102157.63;5092796;28;20048;-65
2022/06/11 06:21:05;;;;;;;13.13;4.07;;;;;;;18.45;58.66;102160.00;5091004;28;20052;-66
2022/06/11 06:23:33;;;;;;;14.15;3.38;;;;;;;18.42;58.64;102161.31;5100402;28;20078;-66
2022/06/11 06:26:01;;;;;;;14.18;2.92;;;;;;;18.44;59.20;102161.91;5095192;28;20064;-67
2022/06/11 06:28:29;;;;;;;8.05;2.58;;;;;;;18.45;59.13;102162.72;5089676;28;20538;-68
2022/06/11 06:30:58;;;;;;;10.57;2.60;;;;;;;18.47;58.91;102174.19;5087145;28;20074;-64
2022/06/11 06:33:27;;;;;;;11.25;2.42;;;;;;;18.47;59.08;102174.19;5099570;28;20052;-64
2022/06/11 06:35:54;;;;;;;10.35;3.22;;;;;;;18.46;59.19;102172.53;5098242;28;20117;-65
2022/06/11 06:38:23;;;;;;;8.23;2.42;;;;;;;18.48;59.42;102178.56;5097538;28;20507;-65
2022/06/11 06:40:51;;;;;;;8.32;2.55;;;;;;;18.48;59.34;102181.31;5094550;28;20136;-64
2022/06/11 06:43:20;;;;;;;12.85;2.80;;;;;;;18.50;59.01;102179.16;5098397;28;20051;-64
2022/06/11 06:45:48;;;;;;;16.23;2.83;;;;;;;18.54;59.75;102188.50;5095930;28;20063;-61
2022/06/11 06:48:15;;;;;;;12.40;2.50;;;;;;;18.51;58.79;102180.81;5098917;28;20062;-62
2022/06/11 06:50:43;;;;;;;9.70;2.28;;;;;;;18.48;58.14;102178.56;5094587;28;20055;-65
2022/06/11 06:53:12;;;;;;;13.27;3.10;;;;;;;18.44;58.33;102180.97;5094993;28;20085;-64
2022/06/11 06:55:41;;;;;;;8.15;2.13;;;;;;;18.36;58.29;102162.28;5099339;28;20052;-64
2022/06/11 06:58:09;;;;;;;7.07;2.33;;;;;;;18.43;58.96;102171.13;5095515;28;20048;-64
2022/06/11 07:00:37;;;;;;;11.50;2.38;;;;;;;18.43;58.90;102168.41;5098213;28;20349;-65
2022/06/11 07:03:05;;;;;;;9.65;2.60;;;;;;;18.35;58.45;102159.81;5097664;28;20072;-65
2022/06/11 07:05:34;;;;;;;13.65;2.92;;;;;;;18.41;58.04;102167.00;5097886;28;20040;-63
2022/06/11 07:08:02;;;;;;;11.60;2.90;;;;;;;18.41;57.87;102175.16;5097656;28;20048;-63
2022/06/11 07:10:31;;;;;;;16.35;2.75;;;;;;;18.42;57.73;102179.53;5097899;28;20059;-64
2022/06/11 07:13:00;;;;;;;15.45;3.47;;;;;;;18.39;57.70;102178.13;5095574;28;20058;-65
2022/06/11 07:15:29;;;;;;;10.57;2.78;;;;;;;18.41;57.46;102176.00;5099958;28;20554;-61
2022/06/11 07:18:01;;;;;;;14.77;2.75;;;;;;;18.47;58.17;102185.09;5097187;28;20055;-62
2022/06/11 07:20:31;;;;;;;11.10;2.85;;;;;;;18.47;58.22;102176.91;5098794;28;20080;-64
2022/06/11 07:23:03;;;;;;;9.95;3.10;;;;;;;18.54;59.04;102180.34;5098013;28;20552;-64
2022/06/11 07:25:31;;;;;;;11.07;3.53;;;;;;;18.55;58.15;102190.16;5097637;28;20056;-63
2022/06/11 07:28:04;;;;;;;11.13;2.40;;;;;;;18.54;58.31;102194.78;5097306;28;20110;-64
2022/06/11 07:30:36;;;;;;;14.13;4.38;;;;;;;18.57;58.84;102201.63;5097329;28;20395;-63
2022/06/11 07:33:08;;;;;;;12.82;3.08;;;;;;;18.58;58.37;102205.19;5093027;28;20056;-64
2022/06/11 07:35:38;;;;;;;14.00;4.22;;;;;;;18.56;58.31;102202.69;5093783;28;20048;-66
2022/06/11 07:38:09;;;;;;;15.98;3.70;;;;;;;18.56;58.08;102196.44;5099645;28;20079;-62
2022/06/11 07:40:37;;;;;;;8.68;2.70;;;;;;;18.54;58.18;102199.38;5090773;28;20057;-64
2022/06/11 07:43:06;;;;;;;13.20;3.42;;;;;;;18.54;58.33;102194.78;5093774;28;20051;-63
2022/06/11 07:45:35;;;;;;;9.05;2.78;;;;;;;18.52;58.27;102185.19;5092606;28;20063;-65
2022/06/11 07:48:03;;;;;;;8.32;2.92;;;;;;;18.54;58.68;102191.22;5097462;28;20070;-64
2022/06/11 07:50:33;;;;;;;15.57;4.47;;;;;;;18.57;58.62;102200.81;5096673;28;20051;-65
2022/06/11 07:53:03;;;;;;;9.75;2.50;;;;;;;18.56;58.85;102197.25;5096292;28;20048;-64
2022/06/11 07:55:31;;;;;;;13.20;3.33;;;;;;;18.66;61.21;102191.22;5095970;28;20076;-66
2022/06/11 07:57:59;;;;;;;12.18;3.20;;;;;;;18.72;58.59;102192.97;5096549;28;20059;-65
2022/06/11 08:00:32;;;;;;;11.25;3.33;;;;;;;18.68;58.46;102198.06;5100641;28;20051;-65
2022/06/11 08:03:01;;;;;;;13.77;4.10;;;;;;;18.66;58.46;102196.66;5102535;28;20083;-65
2022/06/11 08:05:29;;;;;;;9.27;3.28;;;;;;;18.76;60.21;102199.56;5103139;28;20070;-65
2022/06/11 08:07:56;;;;;;;13.23;3.35;;;;;;;18.88;58.95;102207.69;5101135;28;20057;-66
2022/06/11 08:10:28;;;;;;;13.95;3.60;;;;;;;18.83;58.84;102214.72;5094249;28;20059;-65
2022/06/11 08:12:56;;;;;;;14.85;4.72;;;;;;;18.82;58.44;102218.50;5095878;28;20117;-65
2022/06/11 08:15:24;;;;;;;15.27;4.43;;;;;;;18.82;57.33;102223.13;5099851;28;20056;-65
2022/06/11 08:17:54;;;;;;;17.02;4.55;;;;;;;18.82;58.13;102215.78;5099192;28;20075;-64
2022/06/11 08:20:26;;;;;;;14.80;3.90;;;;;;;18.93;59.45;102215.97;5099849;28;20122;-65
2022/06/11 08:22:54;;;;;;;16.17;4.07;;;;;;;18.94;58.17;102212.16;5100809;28;20048;-65
2022/06/11 08:25:23;;;;;;;11.13;2.75;;;;;;;19.00;59.00;102214.75;5098388;28;20191;-63
2022/06/11 08:27:51;;;;;;;17.67;3.90;;;;;;;18.97;58.84;102207.06;5099961;28;20090;-65
2022/06/11 08:30:21;;;;;;;15.02;5.05;;;;;;;19.02;58.04;102212.59;5095528;28;20480;-64
2022/06/11 08:32:49;;;;;;;14.55;3.40;;;;;;;19.03;58.41;102218.88;5102276;28;20059;-64
2022/06/11 08:35:24;;;;;;;11.90;3.80;;;;;;;19.00;57.57;102222.09;5097853;28;20086;-65
2022/06/11 08:37:52;;;;;;;21.25;4.82;;;;;;;18.98;58.03;102225.06;5097658;28;20146;-63
2022/06/11 08:40:25;;;;;;;15.68;3.85;;;;;;;19.01;58.13;102223.75;5097757;28;20075;-64
2022/06/11 08:42:59;;;;;;;13.40;3.58;;;;;;;19.01;58.18;102219.13;5101473;28;20048;-63
2022/06/11 08:45:35;;;;;;;14.73;3.78;;;;;;;19.10;58.57;102222.25;5099033;28;20059;-64
2022/06/11 08:48:14;;;;;;;17.10;3.40;;;;;;;18.95;58.52;102201.03;5098622;28;20048;-63
2022/06/11 08:50:48;;;;;;;16.20;3.25;;;;;;;19.04;58.26;102224.09;5099845;28;20044;-63
2022/06/11 08:53:17;;;;;;;17.77;3.13;;;;;;;19.04;58.21;102231.44;5096456;28;20056;-64
2022/06/11 08:55:45;;;;;;;13.07;3.08;;;;;;;19.13;59.18;102222.59;5094729;28;20076;-64
2022/06/11 08:58:26;;;;;;;12.43;4.03;;;;;;;19.12;57.94;102220.09;5092228;28;20055;-69
2022/06/11 09:01:04;;;;;;;13.13;3.92;;;;;;;19.13;58.81;102219.84;5092048;28;20122;-64
2022/06/11 09:03:50;;;;;;;15.38;3.78;;;;;;;19.18;58.50;102219.13;5094437;28;20417;-63
2022/06/11 09:06:50;;;;;;;16.15;4.40;;;;;;;19.13;58.33;102214.41;5094871;28;20071;-63
2022/06/11 09:09:32;;;;;;;11.10;3.30;;;;;;;19.14;58.57;102221.50;5091564;28;20052;-63
2022/06/11 09:12:16;;;;;;;9.93;3.47;;;;;;;19.13;58.30;102208.97;5095055;28;20074;-64
2022/06/11 09:15:10;;;;;;;15.23;4.05;;;;;;;19.15;58.52;102216.88;5099211;28;20051;-63
2022/06/11 09:18:09;;;;;;;13.13;3.10;;;;;;;19.35;59.04;102219.97;5093039;28;20102;-64
2022/06/11 09:20:46;;;;;;;11.02;3.35;;;;;;;19.38;58.90;102215.91;5099502;28;20087;-63
2022/06/11 09:23:30;;;;;;;9.63;2.95;;;;;;;19.34;58.93;102212.84;5098873;28;20106;-64
2022/06/11 09:26:11;;;;;;;10.63;2.80;;;;;;;19.39;58.95;102215.66;5094971;28;20083;-63
2022/06/11 09:28:43;;;;;;;13.18;3.28;;;;;;;19.40;58.85;102213.78;5094860;28;20044;-63
2022/06/11 09:31:13;;;;;;;11.05;3.70;;;;;;;19.39;59.14;102217.56;5095909;28;20051;-63
2022/06/11 09:33:52;;;;;;;15.18;4.43;;;;;;;19.38;58.89;102216.75;5099435;28;20060;-63
2022/06/11 09:36:30;;;;;;;16.15;4.05;;;;;;;19.40;58.68;102219.22;5097832;28;20051;-64
2022/06/11 09:39:08;;;;;;;15.82;3.20;;;;;;;19.47;58.69;102217.16;5096937;28;20051;-68
2022/06/11 09:41:46;;;;;;;17.75;3.92;;;;;;;19.47;58.44;102214.44;5100694;28;20470;-64
2022/06/11 09:44:33;;;;;;;15.63;4.28;;;;;;;19.45;57.85;102214.69;5101181;28;20184;-63
2022/06/11 09:47:05;;;;;;;;;;;;;;;19.49;58.00;102215.84;5090457;28;20551;-65
2022/06/11 09:49:42;;;;;;;10.65;2.67;;;;;;;19.52;57.85;102216.44;5096678;28;19953;-63
2022/06/11 09:52:20;;;;;;;14.88;3.55;;;;;;;19.52;57.86;102225.47;5096864;28;20064;-63
2022/06/11 09:54:53;;;;;;;15.25;3.35;;;;;;;19.52;57.81;102227.34;5097830;28;20062;-63
2022/06/11 09:57:34;;;;;;;13.32;2.90;;;;;;;19.53;57.62;102223.56;5097680;28;20177;-63
2022/06/11 10:00:13;;;;;;;15.45;3.95;;;;;;;19.55;57.33;102214.06;5099159;28;20406;-65
2022/06/11 10:02:47;;;;;;;16.05;4.38;;;;;;;19.54;57.01;102215.13;5094663;28;20052;-64
2022/06/11 10:05:20;;;;;;;18.73;4.57;;;;;;;19.53;56.70;102215.38;5090574;28;20059;-66
2022/06/11 10:07:54;;;;;;;17.92;4.20;;;;;;;19.57;58.49;102214.63;5095645;28;20070;-61
2022/06/11 10:10:26;;;;;;;16.25;3.20;;;;;;;19.59;58.46;102208.94;5095667;28;20044;-62
2022/06/11 10:12:58;;;;;;;13.50;3.60;;;;;;;19.70;58.22;102213.47;5091713;28;20036;-61
2022/06/11 10:15:32;;;;;;;13.25;3.53;;;;;;;19.74;58.65;102215.44;5093142;28;20135;-63
2022/06/11 10:18:04;;;;;;;18.45;5.00;;;;;;;19.81;58.67;102221.56;5095569;28;20097;-62
2022/06/11 10:20:36;;;;;;;12.32;4.15;;;;;;;19.84;58.43;102214.78;5093788;28;20044;-63
2022/06/11 10:23:15;;;;;;;10.70;3.13;;;;;;;19.87;57.40;102218.91;5093919;28;20044;-63
2022/06/11 10:25:52;;;;;;;19.73;4.10;;;;;;;19.85;57.20;102216.41;5099381;28;20048;-63
2022/06/11 10:28:26;;;;;;;13.77;3.00;;;;;;;19.86;57.54;102214.53;5097887;28;20078;-63
2022/06/11 10:30:58;;;;;;;13.73;3.42;;;;;;;19.86;58.27;102214.53;4736842;28;10001249;-63
2022/06/11 10:33:36;;;;;;;7.53;2.72;;;;;;;19.93;58.08;102216.00;5090854;28;20164;-63
2022/06/11 10:36:09;;;;;;;16.00;3.70;;;;;;;20.05;57.97;102222.16;5090414;28;20056;-63
2022/06/11 10:38:51;;;;;;;14.05;3.60;;;;;;;20.11;57.83;102221.16;5093439;28;20050;-62
2022/06/11 10:41:24;;;;;;;;;;;;;;;20.14;58.13;102217.09;5092259;28;20075;-63
2022/06/11 10:44:04;;;;;;;9.13;3.53;;;;;;;20.15;58.35;102219.59;5092190;28;19928;-63
2022/06/11 10:46:34;;;;;;;9.38;2.63;;;;;;;20.32;58.00;102216.81;5099863;28;20052;-63
2022/06/11 10:49:02;;;;;;;9.05;2.65;;;;;;;20.34;58.04;102224.75;5094316;28;20056;-64
2022/06/11 10:51:34;;;;;;;14.82;3.60;;;;;;;20.31;57.69;102215.16;5092576;28;20047;-64
2022/06/11 10:54:07;;;;;;;14.43;3.45;;;;;;;20.32;57.40;102214.06;5091230;28;20154;-64
2022/06/11 10:56:47;;;;;;;;;;;;;;;20.32;56.97;102214.06;5091918;28;20073;-65
2022/06/11 10:59:23;;;;;;;13.32;3.30;;;;;;;20.36;57.60;102214.38;5092594;28;19981;-65
2022/06/11 11:01:57;;;;;;;11.13;2.90;;;;;;;20.40;57.70;102212.84;5091337;28;20479;-65
2022/06/11 11:04:38;;;;;;;18.90;3.60;;;;;;;20.42;57.10;102206.03;5092109;28;20078;-64
2022/06/11 11:07:12;;;;;;;11.27;2.75;;;;;;;20.47;57.05;102210.75;5090521;28;20050;-65
2022/06/11 11:09:40;;;;;;;12.45;2.55;;;;;;;20.53;56.65;102208.88;5090647;28;20067;-65
2022/06/11 11:12:19;;;;;;;13.48;3.53;;;;;;;20.56;56.80;102202.91;5092146;28;20052;-63
2022/06/11 11:14:56;;;;;;;9.85;2.90;;;;;;;20.60;57.09;102195.88;5095882;28;20091;-64
2022/06/11 11:17:26;;;;;;;11.43;3.28;;;;;;;20.66;56.62;102200.31;5091334;28;20088;-64
2022/06/11 11:22:56;;;;;;;9.00;3.05;;;;;;;20.80;56.65;102205.06;5090204;28;20078;-63
2022/06/11 11:25:32;;;;;;;10.07;2.60;;;;;;;20.82;56.79;102182.97;5091211;28;20139;-64
2022/06/11 11:28:02;;;;;;;10.35;3.08;;;;;;;20.85;56.50;102185.19;5090568;28;20083;-64
2022/06/11 11:30:35;;;;;;;5.72;2.17;;;;;;;20.84;55.98;102190.91;5093038;28;20072;-64
2022/06/11 11:33:21;;;;;;;9.88;2.40;;;;;;;20.87;54.71;102193.13;5097374;28;20052;-64
2022/06/11 11:35:49;;;;;;;9.77;2.92;;;;;;;20.90;55.10;102196.16;5099699;28;20476;-65
2022/06/11 11:38:22;;;;;;;7.60;2.13;;;;;;;20.93;54.66;102198.38;5100262;28;20124;-62
2022/06/11 11:40:53;;;;;;;10.50;3.22;;;;;;;20.99;55.43;102197.34;5099010;28;20173;-63
2022/06/11 11:43:25;;;;;;;7.35;2.38;;;;;;;21.06;55.62;102199.88;5091589;28;20505;-65
2022/06/11 11:45:58;;;;;;;7.47;2.20;;;;;;;21.04;55.32;102189.19;5096429;28;20067;-65
2022/06/11 11:48:30;;;;;;;10.68;2.10;;;;;;;21.15;55.19;102192.03;5091915;28;20044;-65
2022/06/11 11:51:04;;;;;;;7.72;2.40;;;;;;;21.20;54.73;102197.53;5094412;28;20052;-64
2022/06/11 11:53:40;;;;;;;9.88;2.40;;;;;;;21.17;52.75;102193.41;5096344;28;20078;-67